sensor_id;sensor_type;location;lat;lon;timestamp;P1;durP1;ratioP1;P2;durP2;ratioP2
24147;SDS011;12309;51.450;-2.624;2023-02-15T00:01:16;43.03;;;22.17;;
24147;SDS011;12309;51.450;-2.624;2023-02-15T00:03:42;42.13;;;22.03;;
24147;SDS011;12309;51.450;-2.624;2023-02-15T00:06:07;38.63;;;20.73;;
24147;SDS011;12309;51.450;-2.624;2023-02-15T00:08:33;46.80;;;24.00;;
24147;SDS011;12309;51.450;-2.624;2023-02-15T00:11:09;43.73;;;22.53;;
24147;SDS011;12309;51.450;-2.624;2023-02-15T00:13:36;42.60;;;23.57;;
24147;SDS011;12309;51.450;-2.624;2023-02-15T00:16:04;43.73;;;23.40;;
24147;SDS011;12309;51.450;-2.624;2023-02-15T00:18:32;45.17;;;23.37;;
24147;SDS011;12309;51.450;-2.624;2023-02-15T00:20:58;47.83;;;24.17;;
24147;SDS011;12309;51.450;-2.624;2023-02-15T00:23:28;43.53;;;24.83;;
24147;SDS011;12309;51.450;-2.624;2023-02-15T00:26:02;52.03;;;24.73;;
24147;SDS011;12309;51.450;-2.624;2023-02-15T00:28:31;43.73;;;22.90;;
24147;SDS011;12309;51.450;-2.624;2023-02-15T00:31:14;41.87;;;22.30;;
24147;SDS011;12309;51.450;-2.624;2023-02-15T00:33:40;42.70;;;23.70;;
24147;SDS011;12309;51.450;-2.624;2023-02-15T00:36:07;43.37;;;22.73;;
24147;SDS011;12309;51.450;-2.624;2023-02-15T00:38:34;43.63;;;23.70;;
24147;SDS011;12309;51.450;-2.624;2023-02-15T00:41:01;50.90;;;24.90;;
24147;SDS011;12309;51.450;-2.624;2023-02-15T00:43:28;42.87;;;23.03;;
24147;SDS011;12309;51.450;-2.624;2023-02-15T00:45:55;42.17;;;22.27;;
24147;SDS011;12309;51.450;-2.624;2023-02-15T00:48:21;44.67;;;23.13;;
24147;SDS011;12309;51.450;-2.624;2023-02-15T00:50:51;45.47;;;22.90;;
24147;SDS011;12309;51.450;-2.624;2023-02-15T00:53:18;49.67;;;24.10;;
24147;SDS011;12309;51.450;-2.624;2023-02-15T00:55:43;44.23;;;24.00;;
24147;SDS011;12309;51.450;-2.624;2023-02-15T00:58:09;47.83;;;25.53;;
24147;SDS011;12309;51.450;-2.624;2023-02-15T01:00:35;49.53;;;25.60;;
24147;SDS011;12309;51.450;-2.624;2023-02-15T01:03:01;49.13;;;25.87;;
24147;SDS011;12309;51.450;-2.624;2023-02-15T01:05:27;46.03;;;25.07;;
24147;SDS011;12309;51.450;-2.624;2023-02-15T01:07:54;59.10;;;26.07;;
24147;SDS011;12309;51.450;-2.624;2023-02-15T01:10:20;55.83;;;26.50;;
24147;SDS011;12309;51.450;-2.624;2023-02-15T01:12:46;52.13;;;26.23;;
24147;SDS011;12309;51.450;-2.624;2023-02-15T01:15:12;50.33;;;25.60;;
24147;SDS011;12309;51.450;-2.624;2023-02-15T01:17:37;49.10;;;26.20;;
24147;SDS011;12309;51.450;-2.624;2023-02-15T01:20:03;50.87;;;25.93;;
24147;SDS011;12309;51.450;-2.624;2023-02-15T01:22:30;45.13;;;24.80;;
24147;SDS011;12309;51.450;-2.624;2023-02-15T01:24:56;46.27;;;25.17;;
24147;SDS011;12309;51.450;-2.624;2023-02-15T01:27:21;45.20;;;24.10;;
24147;SDS011;12309;51.450;-2.624;2023-02-15T01:29:47;45.43;;;24.23;;
24147;SDS011;12309;51.450;-2.624;2023-02-15T01:32:12;49.40;;;24.63;;
24147;SDS011;12309;51.450;-2.624;2023-02-15T01:34:38;55.57;;;25.97;;
24147;SDS011;12309;51.450;-2.624;2023-02-15T01:37:04;51.13;;;25.53;;
24147;SDS011;12309;51.450;-2.624;2023-02-15T01:39:29;47.27;;;25.43;;
24147;SDS011;12309;51.450;-2.624;2023-02-15T01:41:55;46.43;;;24.57;;
24147;SDS011;12309;51.450;-2.624;2023-02-15T01:47:11;50.37;;;24.73;;
24147;SDS011;12309;51.450;-2.624;2023-02-15T01:49:40;48.93;;;25.83;;
24147;SDS011;12309;51.450;-2.624;2023-02-15T01:52:08;46.20;;;25.47;;
24147;SDS011;12309;51.450;-2.624;2023-02-15T01:54:37;45.67;;;25.43;;
24147;SDS011;12309;51.450;-2.624;2023-02-15T01:57:09;52.93;;;25.87;;
24147;SDS011;12309;51.450;-2.624;2023-02-15T01:59:39;53.73;;;25.73;;
24147;SDS011;12309;51.450;-2.624;2023-02-15T02:02:07;52.83;;;27.13;;
24147;SDS011;12309;51.450;-2.624;2023-02-15T02:04:41;53.80;;;26.77;;
24147;SDS011;12309;51.450;-2.624;2023-02-15T02:07:12;53.17;;;26.60;;
24147;SDS011;12309;51.450;-2.624;2023-02-15T02:09:41;50.37;;;25.67;;
24147;SDS011;12309;51.450;-2.624;2023-02-15T02:12:07;54.87;;;26.83;;
24147;SDS011;12309;51.450;-2.624;2023-02-15T02:14:34;49.83;;;26.97;;
24147;SDS011;12309;51.450;-2.624;2023-02-15T02:20:13;59.50;;;27.67;;
24147;SDS011;12309;51.450;-2.624;2023-02-15T02:34:21;53.97;;;29.23;;
24147;SDS011;12309;51.450;-2.624;2023-02-15T02:37:03;57.23;;;29.37;;
24147;SDS011;12309;51.450;-2.624;2023-02-15T02:39:44;54.00;;;27.87;;
24147;SDS011;12309;51.450;-2.624;2023-02-15T02:42:17;55.30;;;28.77;;
24147;SDS011;12309;51.450;-2.624;2023-02-15T02:45:09;60.03;;;29.20;;
24147;SDS011;12309;51.450;-2.624;2023-02-15T02:48:03;54.13;;;28.87;;
24147;SDS011;12309;51.450;-2.624;2023-02-15T02:50:30;60.23;;;29.40;;
24147;SDS011;12309;51.450;-2.624;2023-02-15T02:52:57;58.67;;;29.80;;
24147;SDS011;12309;51.450;-2.624;2023-02-15T02:55:25;58.57;;;29.00;;
24147;SDS011;12309;51.450;-2.624;2023-02-15T03:00:39;62.87;;;31.63;;
24147;SDS011;12309;51.450;-2.624;2023-02-15T03:03:12;66.27;;;32.93;;
24147;SDS011;12309;51.450;-2.624;2023-02-15T03:05:46;66.60;;;32.43;;
24147;SDS011;12309;51.450;-2.624;2023-02-15T03:08:14;62.90;;;31.93;;
24147;SDS011;12309;51.450;-2.624;2023-02-15T03:10:46;56.80;;;31.33;;
24147;SDS011;12309;51.450;-2.624;2023-02-15T03:13:18;62.53;;;32.03;;
24147;SDS011;12309;51.450;-2.624;2023-02-15T03:15:44;66.37;;;33.27;;
24147;SDS011;12309;51.450;-2.624;2023-02-15T03:18:39;70.27;;;33.00;;
24147;SDS011;12309;51.450;-2.624;2023-02-15T03:21:17;66.70;;;31.97;;
24147;SDS011;12309;51.450;-2.624;2023-02-15T03:23:54;67.57;;;33.73;;
24147;SDS011;12309;51.450;-2.624;2023-02-15T03:26:25;63.17;;;32.10;;
24147;SDS011;12309;51.450;-2.624;2023-02-15T03:28:54;64.60;;;34.20;;
24147;SDS011;12309;51.450;-2.624;2023-02-15T03:31:22;62.07;;;32.73;;
24147;SDS011;12309;51.450;-2.624;2023-02-15T03:33:55;66.93;;;33.43;;
24147;SDS011;12309;51.450;-2.624;2023-02-15T03:36:44;68.73;;;33.03;;
24147;SDS011;12309;51.450;-2.624;2023-02-15T03:39:19;65.67;;;33.53;;
24147;SDS011;12309;51.450;-2.624;2023-02-15T03:41:48;67.73;;;33.77;;
24147;SDS011;12309;51.450;-2.624;2023-02-15T03:44:26;64.67;;;33.37;;
24147;SDS011;12309;51.450;-2.624;2023-02-15T03:46:54;77.03;;;35.07;;
24147;SDS011;12309;51.450;-2.624;2023-02-15T03:49:38;66.37;;;34.30;;
24147;SDS011;12309;51.450;-2.624;2023-02-15T03:52:11;74.87;;;35.40;;
24147;SDS011;12309;51.450;-2.624;2023-02-15T03:54:39;66.83;;;33.13;;
24147;SDS011;12309;51.450;-2.624;2023-02-15T03:57:18;63.70;;;33.03;;
24147;SDS011;12309;51.450;-2.624;2023-02-15T04:00:19;64.07;;;33.00;;
24147;SDS011;12309;51.450;-2.624;2023-02-15T04:05:41;66.80;;;34.00;;
24147;SDS011;12309;51.450;-2.624;2023-02-15T04:08:08;69.87;;;34.83;;
24147;SDS011;12309;51.450;-2.624;2023-02-15T04:10:34;75.47;;;36.00;;
24147;SDS011;12309;51.450;-2.624;2023-02-15T04:13:20;71.93;;;35.60;;
24147;SDS011;12309;51.450;-2.624;2023-02-15T04:15:47;71.10;;;34.57;;
24147;SDS011;12309;51.450;-2.624;2023-02-15T04:18:29;68.40;;;33.80;;
24147;SDS011;12309;51.450;-2.624;2023-02-15T04:21:18;71.00;;;35.07;;
24147;SDS011;12309;51.450;-2.624;2023-02-15T04:24:06;64.20;;;34.20;;
24147;SDS011;12309;51.450;-2.624;2023-02-15T04:26:51;72.20;;;35.23;;
24147;SDS011;12309;51.450;-2.624;2023-02-15T04:29:20;69.97;;;35.37;;
24147;SDS011;12309;51.450;-2.624;2023-02-15T04:31:47;72.53;;;35.87;;
24147;SDS011;12309;51.450;-2.624;2023-02-15T04:34:12;68.57;;;34.20;;
24147;SDS011;12309;51.450;-2.624;2023-02-15T04:36:39;72.50;;;36.53;;
24147;SDS011;12309;51.450;-2.624;2023-02-15T04:39:05;67.10;;;36.13;;
24147;SDS011;12309;51.450;-2.624;2023-02-15T04:41:31;70.30;;;34.73;;
24147;SDS011;12309;51.450;-2.624;2023-02-15T04:43:56;70.33;;;35.50;;
24147;SDS011;12309;51.450;-2.624;2023-02-15T04:46:22;68.87;;;34.37;;
24147;SDS011;12309;51.450;-2.624;2023-02-15T04:48:48;70.37;;;35.53;;
24147;SDS011;12309;51.450;-2.624;2023-02-15T04:51:13;72.67;;;34.60;;
24147;SDS011;12309;51.450;-2.624;2023-02-15T04:53:39;78.90;;;38.40;;
24147;SDS011;12309;51.450;-2.624;2023-02-15T04:56:05;66.07;;;33.90;;
24147;SDS011;12309;51.450;-2.624;2023-02-15T04:58:31;71.27;;;36.37;;
24147;SDS011;12309;51.450;-2.624;2023-02-15T05:00:56;74.77;;;37.40;;
24147;SDS011;12309;51.450;-2.624;2023-02-15T05:03:23;74.87;;;36.60;;
24147;SDS011;12309;51.450;-2.624;2023-02-15T05:05:49;72.93;;;36.03;;
24147;SDS011;12309;51.450;-2.624;2023-02-15T05:08:15;78.50;;;37.27;;
24147;SDS011;12309;51.450;-2.624;2023-02-15T05:10:41;72.40;;;36.20;;
24147;SDS011;12309;51.450;-2.624;2023-02-15T05:13:07;75.17;;;36.20;;
24147;SDS011;12309;51.450;-2.624;2023-02-15T05:15:33;69.40;;;35.37;;
24147;SDS011;12309;51.450;-2.624;2023-02-15T05:17:58;82.43;;;38.07;;
24147;SDS011;12309;51.450;-2.624;2023-02-15T05:20:24;77.67;;;36.63;;
24147;SDS011;12309;51.450;-2.624;2023-02-15T05:22:53;70.63;;;34.70;;
24147;SDS011;12309;51.450;-2.624;2023-02-15T05:25:19;70.93;;;35.87;;
24147;SDS011;12309;51.450;-2.624;2023-02-15T05:28:14;70.03;;;34.00;;
24147;SDS011;12309;51.450;-2.624;2023-02-15T05:33:16;127.67;;;52.40;;
24147;SDS011;12309;51.450;-2.624;2023-02-15T05:35:42;86.23;;;40.27;;
24147;SDS011;12309;51.450;-2.624;2023-02-15T05:38:08;78.50;;;37.47;;
24147;SDS011;12309;51.450;-2.624;2023-02-15T05:40:34;73.87;;;35.07;;
24147;SDS011;12309;51.450;-2.624;2023-02-15T05:43:05;81.00;;;38.57;;
24147;SDS011;12309;51.450;-2.624;2023-02-15T05:45:31;89.13;;;39.87;;
24147;SDS011;12309;51.450;-2.624;2023-02-15T05:47:57;91.20;;;41.63;;
24147;SDS011;12309;51.450;-2.624;2023-02-15T05:50:23;81.70;;;40.00;;
24147;SDS011;12309;51.450;-2.624;2023-02-15T05:53:22;71.20;;;34.33;;
24147;SDS011;12309;51.450;-2.624;2023-02-15T05:55:47;65.47;;;34.30;;
24147;SDS011;12309;51.450;-2.624;2023-02-15T05:58:13;80.73;;;38.07;;
24147;SDS011;12309;51.450;-2.624;2023-02-15T06:00:38;79.13;;;38.07;;
24147;SDS011;12309;51.450;-2.624;2023-02-15T06:03:04;73.10;;;36.53;;
24147;SDS011;12309;51.450;-2.624;2023-02-15T06:05:30;69.53;;;34.13;;
24147;SDS011;12309;51.450;-2.624;2023-02-15T06:07:55;72.73;;;35.53;;
24147;SDS011;12309;51.450;-2.624;2023-02-15T06:10:21;78.70;;;35.73;;
24147;SDS011;12309;51.450;-2.624;2023-02-15T06:12:46;82.83;;;37.33;;
24147;SDS011;12309;51.450;-2.624;2023-02-15T06:15:12;75.40;;;35.53;;
24147;SDS011;12309;51.450;-2.624;2023-02-15T06:17:40;69.20;;;35.53;;
24147;SDS011;12309;51.450;-2.624;2023-02-15T06:20:07;76.17;;;36.40;;
24147;SDS011;12309;51.450;-2.624;2023-02-15T06:22:33;78.83;;;38.43;;
24147;SDS011;12309;51.450;-2.624;2023-02-15T06:24:59;79.73;;;36.87;;
24147;SDS011;12309;51.450;-2.624;2023-02-15T06:27:25;72.33;;;36.57;;
24147;SDS011;12309;51.450;-2.624;2023-02-15T06:29:50;71.70;;;35.77;;
24147;SDS011;12309;51.450;-2.624;2023-02-15T06:32:16;70.57;;;35.80;;
24147;SDS011;12309;51.450;-2.624;2023-02-15T06:34:42;74.93;;;37.10;;
24147;SDS011;12309;51.450;-2.624;2023-02-15T06:37:07;69.63;;;35.07;;
24147;SDS011;12309;51.450;-2.624;2023-02-15T06:39:33;76.60;;;36.07;;
24147;SDS011;12309;51.450;-2.624;2023-02-15T06:41:59;72.40;;;36.73;;
24147;SDS011;12309;51.450;-2.624;2023-02-15T06:44:25;77.97;;;38.67;;
24147;SDS011;12309;51.450;-2.624;2023-02-15T06:46:50;81.10;;;38.57;;
24147;SDS011;12309;51.450;-2.624;2023-02-15T06:49:16;78.93;;;36.60;;
24147;SDS011;12309;51.450;-2.624;2023-02-15T06:51:42;82.27;;;37.13;;
24147;SDS011;12309;51.450;-2.624;2023-02-15T06:54:07;81.80;;;37.53;;
24147;SDS011;12309;51.450;-2.624;2023-02-15T06:56:33;80.17;;;38.67;;
24147;SDS011;12309;51.450;-2.624;2023-02-15T06:58:58;73.07;;;37.33;;
24147;SDS011;12309;51.450;-2.624;2023-02-15T07:01:24;77.23;;;37.30;;
24147;SDS011;12309;51.450;-2.624;2023-02-15T07:03:50;71.97;;;36.33;;
24147;SDS011;12309;51.450;-2.624;2023-02-15T07:06:15;77.77;;;38.83;;
24147;SDS011;12309;51.450;-2.624;2023-02-15T07:08:41;78.30;;;39.73;;
24147;SDS011;12309;51.450;-2.624;2023-02-15T07:11:07;80.17;;;39.20;;
24147;SDS011;12309;51.450;-2.624;2023-02-15T07:13:51;78.93;;;36.97;;
24147;SDS011;12309;51.450;-2.624;2023-02-15T07:16:17;64.60;;;35.53;;
24147;SDS011;12309;51.450;-2.624;2023-02-15T07:18:44;76.37;;;36.17;;
24147;SDS011;12309;51.450;-2.624;2023-02-15T07:21:09;76.10;;;35.33;;
24147;SDS011;12309;51.450;-2.624;2023-02-15T07:23:35;67.43;;;33.00;;
24147;SDS011;12309;51.450;-2.624;2023-02-15T07:26:02;68.67;;;34.20;;
24147;SDS011;12309;51.450;-2.624;2023-02-15T07:28:28;71.03;;;35.40;;
24147;SDS011;12309;51.450;-2.624;2023-02-15T07:30:54;71.60;;;35.27;;
24147;SDS011;12309;51.450;-2.624;2023-02-15T07:33:19;75.67;;;34.50;;
24147;SDS011;12309;51.450;-2.624;2023-02-15T07:35:49;78.17;;;35.93;;
24147;SDS011;12309;51.450;-2.624;2023-02-15T07:38:16;83.43;;;38.93;;
24147;SDS011;12309;51.450;-2.624;2023-02-15T07:40:42;78.80;;;36.97;;
24147;SDS011;12309;51.450;-2.624;2023-02-15T07:43:08;85.73;;;42.00;;
24147;SDS011;12309;51.450;-2.624;2023-02-15T07:45:34;68.70;;;35.23;;
24147;SDS011;12309;51.450;-2.624;2023-02-15T07:48:00;72.13;;;35.60;;
24147;SDS011;12309;51.450;-2.624;2023-02-15T07:50:27;74.07;;;35.87;;
24147;SDS011;12309;51.450;-2.624;2023-02-15T07:52:52;76.30;;;35.73;;
24147;SDS011;12309;51.450;-2.624;2023-02-15T07:55:18;71.43;;;34.33;;
24147;SDS011;12309;51.450;-2.624;2023-02-15T07:57:44;72.13;;;35.40;;
24147;SDS011;12309;51.450;-2.624;2023-02-15T08:00:12;65.23;;;33.07;;
24147;SDS011;12309;51.450;-2.624;2023-02-15T08:02:39;67.23;;;32.50;;
24147;SDS011;12309;51.450;-2.624;2023-02-15T08:05:05;67.13;;;33.00;;
24147;SDS011;12309;51.450;-2.624;2023-02-15T08:07:31;65.80;;;33.07;;
24147;SDS011;12309;51.450;-2.624;2023-02-15T08:09:57;72.23;;;34.13;;
24147;SDS011;12309;51.450;-2.624;2023-02-15T08:12:25;64.37;;;33.73;;
24147;SDS011;12309;51.450;-2.624;2023-02-15T08:14:51;71.53;;;33.87;;
24147;SDS011;12309;51.450;-2.624;2023-02-15T08:17:17;72.77;;;34.10;;
24147;SDS011;12309;51.450;-2.624;2023-02-15T08:19:43;73.70;;;34.03;;
24147;SDS011;12309;51.450;-2.624;2023-02-15T08:22:10;73.90;;;33.77;;
24147;SDS011;12309;51.450;-2.624;2023-02-15T08:24:37;60.30;;;31.67;;
24147;SDS011;12309;51.450;-2.624;2023-02-15T08:27:03;62.80;;;31.50;;
24147;SDS011;12309;51.450;-2.624;2023-02-15T08:29:30;62.33;;;32.70;;
24147;SDS011;12309;51.450;-2.624;2023-02-15T08:32:01;55.27;;;30.90;;
24147;SDS011;12309;51.450;-2.624;2023-02-15T08:34:30;52.57;;;29.17;;
24147;SDS011;12309;51.450;-2.624;2023-02-15T08:36:57;52.10;;;28.07;;
24147;SDS011;12309;51.450;-2.624;2023-02-15T08:39:23;50.53;;;27.73;;
24147;SDS011;12309;51.450;-2.624;2023-02-15T08:41:49;52.20;;;29.57;;
24147;SDS011;12309;51.450;-2.624;2023-02-15T08:44:18;45.63;;;26.37;;
24147;SDS011;12309;51.450;-2.624;2023-02-15T08:46:45;45.83;;;28.40;;
24147;SDS011;12309;51.450;-2.624;2023-02-15T08:49:12;53.27;;;27.90;;
24147;SDS011;12309;51.450;-2.624;2023-02-15T08:51:42;46.07;;;26.60;;
24147;SDS011;12309;51.450;-2.624;2023-02-15T08:54:09;49.33;;;27.30;;
24147;SDS011;12309;51.450;-2.624;2023-02-15T08:56:38;49.77;;;26.73;;
24147;SDS011;12309;51.450;-2.624;2023-02-15T08:59:05;41.57;;;24.83;;
24147;SDS011;12309;51.450;-2.624;2023-02-15T09:01:32;44.23;;;24.67;;
24147;SDS011;12309;51.450;-2.624;2023-02-15T09:03:59;47.33;;;24.27;;
24147;SDS011;12309;51.450;-2.624;2023-02-15T09:06:27;43.10;;;23.40;;
24147;SDS011;12309;51.450;-2.624;2023-02-15T09:08:54;49.33;;;27.47;;
24147;SDS011;12309;51.450;-2.624;2023-02-15T09:11:24;41.70;;;24.33;;
24147;SDS011;12309;51.450;-2.624;2023-02-15T09:13:58;41.13;;;22.97;;
24147;SDS011;12309;51.450;-2.624;2023-02-15T09:16:26;39.17;;;21.43;;
24147;SDS011;12309;51.450;-2.624;2023-02-15T09:18:53;36.23;;;21.17;;
24147;SDS011;12309;51.450;-2.624;2023-02-15T09:21:20;40.17;;;19.52;;
24147;SDS011;12309;51.450;-2.624;2023-02-15T09:23:48;36.73;;;19.37;;
24147;SDS011;12309;51.450;-2.624;2023-02-15T09:26:17;37.20;;;17.30;;
24147;SDS011;12309;51.450;-2.624;2023-02-15T09:28:44;36.65;;;18.48;;
24147;SDS011;12309;51.450;-2.624;2023-02-15T09:31:11;27.65;;;16.65;;
24147;SDS011;12309;51.450;-2.624;2023-02-15T09:33:37;28.05;;;14.55;;
24147;SDS011;12309;51.450;-2.624;2023-02-15T09:36:05;37.40;;;15.27;;
24147;SDS011;12309;51.450;-2.624;2023-02-15T09:38:39;32.63;;;16.38;;
24147;SDS011;12309;51.450;-2.624;2023-02-15T09:48:45;24.20;;;11.07;;
24147;SDS011;12309;51.450;-2.624;2023-02-15T09:56:50;29.63;;;11.32;;
24147;SDS011;12309;51.450;-2.624;2023-02-15T09:59:34;28.33;;;11.10;;
24147;SDS011;12309;51.450;-2.624;2023-02-15T10:15:53;26.50;;;9.80;;
24147;SDS011;12309;51.450;-2.624;2023-02-15T10:18:26;23.50;;;9.70;;
24147;SDS011;12309;51.450;-2.624;2023-02-15T10:20:56;24.02;;;9.60;;
24147;SDS011;12309;51.450;-2.624;2023-02-15T10:26:46;15.98;;;8.50;;
24147;SDS011;12309;51.450;-2.624;2023-02-15T10:31:49;21.67;;;8.43;;
24147;SDS011;12309;51.450;-2.624;2023-02-15T10:34:39;24.73;;;8.27;;
24147;SDS011;12309;51.450;-2.624;2023-02-15T10:37:34;21.67;;;6.93;;
24147;SDS011;12309;51.450;-2.624;2023-02-15T10:42:55;28.27;;;8.43;;
24147;SDS011;12309;51.450;-2.624;2023-02-15T10:45:47;25.60;;;10.13;;
24147;SDS011;12309;51.450;-2.624;2023-02-15T10:48:34;18.70;;;7.80;;
24147;SDS011;12309;51.450;-2.624;2023-02-15T10:51:03;21.17;;;7.75;;
24147;SDS011;12309;51.450;-2.624;2023-02-15T11:02:24;24.02;;;8.75;;
24147;SDS011;12309;51.450;-2.624;2023-02-15T11:07:52;22.27;;;8.18;;
24147;SDS011;12309;51.450;-2.624;2023-02-15T11:13:18;23.23;;;8.82;;
24147;SDS011;12309;51.450;-2.624;2023-02-15T11:21:11;22.67;;;8.13;;
24147;SDS011;12309;51.450;-2.624;2023-02-15T11:23:40;22.38;;;7.53;;
24147;SDS011;12309;51.450;-2.624;2023-02-15T11:31:49;22.85;;;7.68;;
24147;SDS011;12309;51.450;-2.624;2023-02-15T11:34:49;22.20;;;6.70;;
24147;SDS011;12309;51.450;-2.624;2023-02-15T11:37:14;20.33;;;7.68;;
24147;SDS011;12309;51.450;-2.624;2023-02-15T11:39:43;19.98;;;7.90;;
24147;SDS011;12309;51.450;-2.624;2023-02-15T11:42:11;23.45;;;8.35;;
24147;SDS011;12309;51.450;-2.624;2023-02-15T11:44:46;23.50;;;8.90;;
24147;SDS011;12309;51.450;-2.624;2023-02-15T11:47:43;21.98;;;8.20;;
24147;SDS011;12309;51.450;-2.624;2023-02-15T11:50:15;19.92;;;7.25;;
24147;SDS011;12309;51.450;-2.624;2023-02-15T11:52:46;16.13;;;6.78;;
24147;SDS011;12309;51.450;-2.624;2023-02-15T11:55:14;19.08;;;6.97;;
24147;SDS011;12309;51.450;-2.624;2023-02-15T11:57:48;15.05;;;6.32;;
24147;SDS011;12309;51.450;-2.624;2023-02-15T12:00:31;25.42;;;7.57;;
24147;SDS011;12309;51.450;-2.624;2023-02-15T12:03:05;20.05;;;6.88;;
24147;SDS011;12309;51.450;-2.624;2023-02-15T12:05:57;22.05;;;7.95;;
24147;SDS011;12309;51.450;-2.624;2023-02-15T12:08:26;13.73;;;7.22;;
24147;SDS011;12309;51.450;-2.624;2023-02-15T12:11:11;25.00;;;8.02;;
24147;SDS011;12309;51.450;-2.624;2023-02-15T12:13:53;18.85;;;7.00;;
24147;SDS011;12309;51.450;-2.624;2023-02-15T12:16:21;21.05;;;7.05;;
24147;SDS011;12309;51.450;-2.624;2023-02-15T12:18:47;29.40;;;7.85;;
24147;SDS011;12309;51.450;-2.624;2023-02-15T12:23:41;21.63;;;7.68;;
24147;SDS011;12309;51.450;-2.624;2023-02-15T12:26:13;19.85;;;6.97;;
24147;SDS011;12309;51.450;-2.624;2023-02-15T12:28:43;19.42;;;7.13;;
24147;SDS011;12309;51.450;-2.624;2023-02-15T12:31:47;17.45;;;7.50;;
24147;SDS011;12309;51.450;-2.624;2023-02-15T12:34:20;26.88;;;7.97;;
24147;SDS011;12309;51.450;-2.624;2023-02-15T12:36:51;16.65;;;6.82;;
24147;SDS011;12309;51.450;-2.624;2023-02-15T12:39:24;22.05;;;7.93;;
24147;SDS011;12309;51.450;-2.624;2023-02-15T12:44:28;25.13;;;7.95;;
24147;SDS011;12309;51.450;-2.624;2023-02-15T12:47:06;31.90;;;7.78;;
24147;SDS011;12309;51.450;-2.624;2023-02-15T12:49:44;18.20;;;7.05;;
24147;SDS011;12309;51.450;-2.624;2023-02-15T12:54:45;25.80;;;7.45;;
24147;SDS011;12309;51.450;-2.624;2023-02-15T12:57:31;24.67;;;6.32;;
24147;SDS011;12309;51.450;-2.624;2023-02-15T13:02:27;18.08;;;6.22;;
24147;SDS011;12309;51.450;-2.624;2023-02-15T13:05:04;16.52;;;5.95;;
24147;SDS011;12309;51.450;-2.624;2023-02-15T13:07:50;16.65;;;5.70;;
24147;SDS011;12309;51.450;-2.624;2023-02-15T13:10:23;18.90;;;6.65;;
24147;SDS011;12309;51.450;-2.624;2023-02-15T13:12:54;17.05;;;5.72;;
24147;SDS011;12309;51.450;-2.624;2023-02-15T13:15:41;19.23;;;6.25;;
24147;SDS011;12309;51.450;-2.624;2023-02-15T13:18:13;23.85;;;6.93;;
24147;SDS011;12309;51.450;-2.624;2023-02-15T13:20:42;30.73;;;7.22;;
24147;SDS011;12309;51.450;-2.624;2023-02-15T13:26:09;23.75;;;7.18;;
24147;SDS011;12309;51.450;-2.624;2023-02-15T13:28:47;21.05;;;7.28;;
24147;SDS011;12309;51.450;-2.624;2023-02-15T13:31:22;24.95;;;7.53;;
24147;SDS011;12309;51.450;-2.624;2023-02-15T13:33:53;18.55;;;6.80;;
24147;SDS011;12309;51.450;-2.624;2023-02-15T13:38:57;20.45;;;6.90;;
24147;SDS011;12309;51.450;-2.624;2023-02-15T13:44:18;24.40;;;6.85;;
24147;SDS011;12309;51.450;-2.624;2023-02-15T13:52:26;23.27;;;7.43;;
24147;SDS011;12309;51.450;-2.624;2023-02-15T14:00:25;22.53;;;7.27;;
24147;SDS011;12309;51.450;-2.624;2023-02-15T14:11:12;29.05;;;7.45;;
24147;SDS011;12309;51.450;-2.624;2023-02-15T14:27:12;18.47;;;7.50;;
24147;SDS011;12309;51.450;-2.624;2023-02-15T14:32:12;22.37;;;7.97;;
24147;SDS011;12309;51.450;-2.624;2023-02-15T14:34:54;23.93;;;8.37;;
24147;SDS011;12309;51.450;-2.624;2023-02-15T14:40:27;27.23;;;8.97;;
24147;SDS011;12309;51.450;-2.624;2023-02-15T14:43:31;10.10;;;3.50;;
24147;SDS011;12309;51.450;-2.624;2023-02-15T14:48:57;6.23;;;2.47;;
24147;SDS011;12309;51.450;-2.624;2023-02-15T14:54:08;8.50;;;2.27;;
24147;SDS011;12309;51.450;-2.624;2023-02-15T14:56:35;5.67;;;1.77;;
24147;SDS011;12309;51.450;-2.624;2023-02-15T14:59:13;5.43;;;1.40;;
24147;SDS011;12309;51.450;-2.624;2023-02-15T15:01:50;3.63;;;1.43;;
24147;SDS011;12309;51.450;-2.624;2023-02-15T15:07:37;5.00;;;1.20;;
24147;SDS011;12309;51.450;-2.624;2023-02-15T15:09:46;2.23;;;1.20;;
24147;SDS011;12309;51.450;-2.624;2023-02-15T15:14:49;2.90;;;1.20;;
24147;SDS011;12309;51.450;-2.624;2023-02-15T15:22:24;5.33;;;1.80;;
24147;SDS011;12309;51.450;-2.624;2023-02-15T15:24:55;7.27;;;2.27;;
24147;SDS011;12309;51.450;-2.624;2023-02-15T15:27:56;5.65;;;2.35;;
24147;SDS011;12309;51.450;-2.624;2023-02-15T15:49:27;10.80;;;2.20;;
24147;SDS011;12309;51.450;-2.624;2023-02-15T15:51:56;4.00;;;1.27;;
24147;SDS011;12309;51.450;-2.624;2023-02-15T15:54:25;6.23;;;2.03;;
24147;SDS011;12309;51.450;-2.624;2023-02-15T15:56:53;8.23;;;2.10;;
24147;SDS011;12309;51.450;-2.624;2023-02-15T15:59:25;6.37;;;1.80;;
24147;SDS011;12309;51.450;-2.624;2023-02-15T16:01:53;6.10;;;1.90;;
24147;SDS011;12309;51.450;-2.624;2023-02-15T16:04:23;6.60;;;1.70;;
24147;SDS011;12309;51.450;-2.624;2023-02-15T16:06:51;2.40;;;1.43;;
24147;SDS011;12309;51.450;-2.624;2023-02-15T16:09:21;3.37;;;1.80;;
24147;SDS011;12309;51.450;-2.624;2023-02-15T16:11:55;3.10;;;1.50;;
24147;SDS011;12309;51.450;-2.624;2023-02-15T16:14:37;4.17;;;1.67;;
24147;SDS011;12309;51.450;-2.624;2023-02-15T16:17:05;4.93;;;2.10;;
24147;SDS011;12309;51.450;-2.624;2023-02-15T16:19:44;3.50;;;1.70;;
24147;SDS011;12309;51.450;-2.624;2023-02-15T16:22:11;7.40;;;2.00;;
24147;SDS011;12309;51.450;-2.624;2023-02-15T16:27:41;8.23;;;1.77;;
24147;SDS011;12309;51.450;-2.624;2023-02-15T16:32:52;5.10;;;2.47;;
24147;SDS011;12309;51.450;-2.624;2023-02-15T16:35:32;6.77;;;2.77;;
24147;SDS011;12309;51.450;-2.624;2023-02-15T16:37:58;5.30;;;2.40;;
24147;SDS011;12309;51.450;-2.624;2023-02-15T16:43:13;9.47;;;2.53;;
24147;SDS011;12309;51.450;-2.624;2023-02-15T16:45:40;5.20;;;2.50;;
24147;SDS011;12309;51.450;-2.624;2023-02-15T16:48:07;7.27;;;3.00;;
24147;SDS011;12309;51.450;-2.624;2023-02-15T16:50:39;5.60;;;3.07;;
24147;SDS011;12309;51.450;-2.624;2023-02-15T16:53:06;9.00;;;3.37;;
24147;SDS011;12309;51.450;-2.624;2023-02-15T16:55:39;8.80;;;3.20;;
24147;SDS011;12309;51.450;-2.624;2023-02-15T16:58:07;7.17;;;3.60;;
24147;SDS011;12309;51.450;-2.624;2023-02-15T17:00:38;5.77;;;3.43;;
24147;SDS011;12309;51.450;-2.624;2023-02-15T17:13:25;10.50;;;1.93;;
24147;SDS011;12309;51.450;-2.624;2023-02-15T17:18:23;8.73;;;1.93;;
24147;SDS011;12309;51.450;-2.624;2023-02-15T17:20:51;8.17;;;2.00;;
24147;SDS011;12309;51.450;-2.624;2023-02-15T17:28:45;6.23;;;1.77;;
24147;SDS011;12309;51.450;-2.624;2023-02-15T17:31:14;7.67;;;1.87;;
24147;SDS011;12309;51.450;-2.624;2023-02-15T17:33:42;11.73;;;4.87;;
24147;SDS011;12309;51.450;-2.624;2023-02-15T17:36:16;6.63;;;1.90;;
24147;SDS011;12309;51.450;-2.624;2023-02-15T17:39:04;4.03;;;1.60;;
24147;SDS011;12309;51.450;-2.624;2023-02-15T17:41:44;8.07;;;1.80;;
24147;SDS011;12309;51.450;-2.624;2023-02-15T17:44:12;5.00;;;1.87;;
24147;SDS011;12309;51.450;-2.624;2023-02-15T17:46:40;5.67;;;1.90;;
24147;SDS011;12309;51.450;-2.624;2023-02-15T17:49:06;5.17;;;1.77;;
24147;SDS011;12309;51.450;-2.624;2023-02-15T17:51:32;10.63;;;2.00;;
24147;SDS011;12309;51.450;-2.624;2023-02-15T17:54:00;8.30;;;1.90;;
24147;SDS011;12309;51.450;-2.624;2023-02-15T17:56:55;7.67;;;1.87;;
24147;SDS011;12309;51.450;-2.624;2023-02-15T17:59:27;4.40;;;1.70;;
24147;SDS011;12309;51.450;-2.624;2023-02-15T18:01:52;7.37;;;2.00;;